createdAt,value
2023-02-23T00:01:54.858Z,24.48
2023-02-23T00:04:23.657Z,24.05
2023-02-23T00:06:54.007Z,24.05
2023-02-23T00:09:35.210Z,27.05
2023-02-23T00:12:08.114Z,30.10
2023-02-23T00:14:37.721Z,37.83
2023-02-23T00:17:04.976Z,29.67
2023-02-23T00:19:33.558Z,27.25
2023-02-23T00:22:01.277Z,26.63
2023-02-23T00:24:28.566Z,27.30
2023-02-23T00:26:55.344Z,26.02
2023-02-23T00:29:24.803Z,27.50
2023-02-23T00:31:52.352Z,25.75
2023-02-23T00:34:21.293Z,29.73
2023-02-23T00:36:51.593Z,25.48
2023-02-23T00:39:29.348Z,28.20
2023-02-23T00:41:56.965Z,23.55
2023-02-23T00:44:24.818Z,31.02
2023-02-23T00:46:53.004Z,24.95
2023-02-23T00:49:22.044Z,26.98
2023-02-23T00:51:48.850Z,30.55
2023-02-23T00:54:17.028Z,28.52
2023-02-23T00:56:44.153Z,26.13
2023-02-23T00:59:12.133Z,25.15
2023-02-23T01:01:41.763Z,26.20
2023-02-23T01:04:09.857Z,28.83
2023-02-23T01:06:37.813Z,29.50
2023-02-23T01:09:13.556Z,24.70
2023-02-23T01:11:41.578Z,25.95
2023-02-23T01:14:09.948Z,27.20
2023-02-23T01:16:38.928Z,25.60
2023-02-23T01:19:07.082Z,28.35
2023-02-23T01:21:42.103Z,28.08
2023-02-23T01:24:09.610Z,31.75
2023-02-23T01:26:38.970Z,28.02
2023-02-23T01:29:15.063Z,27.15
2023-02-23T01:31:45.861Z,26.58
2023-02-23T01:34:15.243Z,27.55
2023-02-23T01:36:43.687Z,34.10
2023-02-23T01:39:16.716Z,27.80
2023-02-23T01:41:43.884Z,27.63
2023-02-23T01:44:13.395Z,26.45
2023-02-23T01:46:45.690Z,24.83
2023-02-23T01:49:22.828Z,28.92
2023-02-23T01:51:55.723Z,26.77
2023-02-23T01:54:29.061Z,26.15
2023-02-23T01:56:58.790Z,27.55
2023-02-23T01:59:43.356Z,28.40
2023-02-23T02:02:11.465Z,34.22
2023-02-23T02:04:44.711Z,28.95
2023-02-23T02:07:21.381Z,32.28
2023-02-23T02:10:08.511Z,30.48
2023-02-23T02:12:35.524Z,27.92
2023-02-23T02:15:04.947Z,25.40
2023-02-23T02:17:45.155Z,30.02
2023-02-23T02:21:04.963Z,27.77
2023-02-23T02:23:53.464Z,34.88
2023-02-23T02:26:42.103Z,33.92
2023-02-23T02:29:31.335Z,30.17
2023-02-23T02:32:11.199Z,28.02
2023-02-23T02:35:01.349Z,34.33
2023-02-23T02:37:56.717Z,29.25
2023-02-23T02:40:40.972Z,27.98
2023-02-23T02:43:16.053Z,27.90
2023-02-23T02:45:55.951Z,28.05
2023-02-23T02:48:38.635Z,30.75
2023-02-23T02:51:18.860Z,33.53
2023-02-23T02:53:55.130Z,29.73
2023-02-23T02:56:26.505Z,31.63
2023-02-23T02:58:54.162Z,31.63
2023-02-23T03:01:39.777Z,31.75
2023-02-23T03:04:43.766Z,28.38
2023-02-23T03:08:04.015Z,33.03
2023-02-23T03:10:58.170Z,33.70
2023-02-23T03:13:50.884Z,32.72
2023-02-23T03:16:56.194Z,36.13
2023-02-23T03:19:50.335Z,32.63
2023-02-23T03:22:44.512Z,34.13
2023-02-23T03:25:45.270Z,32.97
2023-02-23T03:28:38.244Z,32.47
2023-02-23T03:31:33.390Z,38.80
2023-02-23T03:34:27.785Z,32.55
2023-02-23T03:37:35.934Z,29.52
2023-02-23T03:40:31.527Z,35.05
2023-02-23T03:43:20.551Z,36.47
2023-02-23T03:46:08.332Z,41.00
2023-02-23T03:48:56.152Z,31.73
2023-02-23T03:51:43.981Z,33.25
2023-02-23T03:54:35.982Z,31.75
2023-02-23T03:57:26.716Z,27.98
2023-02-23T04:00:18.785Z,37.97
2023-02-23T04:03:08.428Z,32.03
2023-02-23T04:05:56.802Z,35.63
2023-02-23T04:08:48.303Z,35.17
2023-02-23T04:11:56.443Z,32.10
2023-02-23T04:14:29.491Z,34.55
2023-02-23T04:16:57.257Z,36.55
2023-02-23T04:19:28.792Z,36.33
2023-02-23T04:21:55.656Z,35.33
2023-02-23T04:24:22.442Z,34.50
2023-02-23T04:26:49.801Z,36.45
2023-02-23T04:29:16.900Z,34.05
2023-02-23T04:31:43.807Z,35.20
2023-02-23T04:34:10.673Z,30.38
2023-02-23T04:36:37.589Z,33.08
2023-02-23T04:39:04.415Z,40.13
2023-02-23T04:41:31.211Z,36.00
2023-02-23T04:43:57.967Z,35.28
2023-02-23T04:46:24.854Z,33.83
2023-02-23T04:48:51.618Z,37.30
2023-02-23T04:51:18.763Z,37.08
2023-02-23T04:53:45.729Z,35.50
2023-02-23T04:56:12.540Z,29.38
2023-02-23T04:58:39.350Z,36.08
2023-02-23T05:01:08.163Z,32.40
2023-02-23T05:03:35.514Z,29.90
2023-02-23T05:06:02.426Z,39.55
2023-02-23T05:08:29.222Z,36.63
2023-02-23T05:10:56.012Z,33.28
2023-02-23T05:13:23.432Z,32.55
2023-02-23T05:15:50.551Z,31.70
2023-02-23T05:18:17.431Z,33.47
2023-02-23T05:20:47.628Z,32.03
2023-02-23T05:23:14.518Z,32.38
2023-02-23T05:25:41.325Z,28.15
2023-02-23T05:28:08.530Z,32.47
2023-02-23T05:30:36.537Z,33.85
2023-02-23T05:33:03.471Z,36.47
2023-02-23T05:35:30.320Z,34.65
2023-02-23T05:37:57.178Z,34.08
2023-02-23T05:40:24.006Z,30.88
2023-02-23T05:42:50.856Z,31.77
2023-02-23T05:45:17.826Z,32.80
2023-02-23T05:47:44.628Z,33.85
2023-02-23T05:50:11.948Z,37.10
2023-02-23T05:52:42.024Z,40.40
2023-02-23T05:55:11.692Z,44.10
2023-02-23T06:01:27.714Z,31.00
2023-02-23T06:03:54.645Z,28.75
2023-02-23T06:06:22.387Z,30.10
2023-02-23T06:08:49.864Z,34.17
2023-02-23T06:11:16.807Z,35.00
2023-02-23T06:13:43.775Z,32.80
2023-02-23T06:16:10.743Z,32.08
2023-02-23T06:18:37.570Z,27.80
2023-02-23T06:21:04.497Z,28.30
2023-02-23T06:23:32.435Z,34.92
2023-02-23T06:26:02.413Z,27.90
2023-02-23T06:28:29.576Z,30.70
2023-02-23T06:30:57.158Z,34.35
2023-02-23T06:33:24.369Z,28.45
2023-02-23T06:35:52.595Z,26.05
2023-02-23T06:38:20.519Z,28.88
2023-02-23T06:40:47.699Z,36.05
2023-02-23T06:43:14.552Z,27.90
2023-02-23T06:45:41.759Z,32.92
2023-02-23T06:48:08.781Z,28.88
2023-02-23T06:50:35.619Z,27.23
2023-02-23T06:53:02.567Z,29.08
2023-02-23T06:55:29.407Z,33.17
2023-02-23T06:57:56.243Z,29.92
2023-02-23T07:00:23.323Z,28.10
2023-02-23T07:02:50.135Z,27.70
2023-02-23T07:05:17.254Z,27.88
2023-02-23T07:07:44.055Z,26.13
2023-02-23T07:10:11.587Z,27.13
2023-02-23T07:12:38.383Z,31.90
2023-02-23T07:15:05.772Z,29.80
2023-02-23T07:17:32.557Z,35.95
2023-02-23T07:19:59.389Z,27.75
2023-02-23T07:22:29.425Z,33.05
2023-02-23T07:24:59.214Z,32.72
2023-02-23T07:27:27.626Z,27.92
2023-02-23T07:29:54.545Z,29.80
2023-02-23T07:32:21.444Z,29.20
2023-02-23T07:34:48.446Z,34.35
2023-02-23T07:37:16.482Z,26.63
2023-02-23T07:39:44.082Z,25.88
2023-02-23T07:42:11.012Z,26.10
2023-02-23T07:44:39.623Z,31.42
2023-02-23T07:47:07.275Z,30.63
2023-02-23T07:49:34.565Z,30.05
2023-02-23T07:52:01.472Z,34.88
2023-02-23T07:54:28.464Z,27.65
2023-02-23T07:56:55.240Z,21.48
2023-02-23T07:59:22.166Z,25.00
2023-02-23T08:01:48.942Z,28.75
2023-02-23T08:04:15.749Z,26.38
2023-02-23T08:06:42.585Z,23.88
2023-02-23T08:09:10.704Z,25.25
2023-02-23T08:11:37.665Z,27.42
2023-02-23T08:14:04.495Z,24.77
2023-02-23T08:16:33.065Z,23.17
2023-02-23T08:19:00.853Z,27.15
2023-02-23T08:21:29.597Z,23.85
2023-02-23T08:23:57.879Z,26.48
2023-02-23T08:26:25.631Z,28.13
2023-02-23T08:28:53.789Z,24.50
2023-02-23T08:31:24.526Z,24.08
2023-02-23T08:33:52.587Z,26.00
2023-02-23T08:36:20.764Z,26.05
2023-02-23T08:38:48.071Z,32.08
2023-02-23T08:41:15.203Z,24.48
2023-02-23T08:43:42.208Z,27.35
2023-02-23T08:46:09.414Z,26.45
2023-02-23T08:48:36.309Z,22.95
2023-02-23T08:51:03.211Z,33.83
2023-02-23T08:53:30.769Z,26.45
2023-02-23T08:56:03.046Z,33.63
2023-02-23T08:58:31.196Z,23.63
2023-02-23T09:00:58.648Z,23.10
2023-02-23T09:03:30.190Z,23.67
2023-02-23T09:05:59.052Z,25.08
2023-02-23T09:08:25.949Z,20.50
2023-02-23T09:10:53.814Z,23.25
2023-02-23T09:13:20.662Z,22.17
2023-02-23T09:15:48.072Z,24.00
2023-02-23T09:18:14.990Z,22.05
2023-02-23T09:20:43.284Z,21.63
2023-02-23T09:23:10.972Z,22.48
2023-02-23T09:25:45.182Z,24.93
2023-02-23T09:28:15.093Z,22.27
2023-02-23T09:30:43.837Z,22.10
2023-02-23T09:33:11.360Z,21.42
2023-02-23T09:35:38.389Z,20.10
2023-02-23T09:38:07.057Z,24.38
2023-02-23T09:40:49.794Z,20.02
2023-02-23T09:43:23.112Z,18.70
2023-02-23T09:46:10.811Z,19.53
2023-02-23T09:48:37.693Z,18.13
2023-02-23T09:51:08.740Z,19.13
2023-02-23T09:53:49.987Z,22.63
2023-02-23T09:56:33.130Z,18.70
2023-02-23T09:59:01.704Z,16.00
2023-02-23T10:01:46.296Z,23.27
2023-02-23T10:04:20.411Z,17.77
2023-02-23T10:07:42.068Z,18.93
2023-02-23T10:10:31.968Z,16.27
2023-02-23T10:13:25.206Z,15.43
2023-02-23T10:16:19.927Z,16.80
2023-02-23T10:19:07.745Z,14.03
2023-02-23T10:21:39.209Z,18.13
2023-02-23T10:24:14.770Z,16.57
2023-02-23T10:26:54.276Z,13.97
2023-02-23T10:29:41.015Z,16.57
2023-02-23T10:32:41.842Z,18.63
2023-02-23T10:35:14.813Z,18.60
2023-02-23T10:37:41.673Z,15.63
2023-02-23T10:40:18.344Z,18.73
2023-02-23T10:42:45.307Z,19.37
2023-02-23T10:45:23.302Z,13.63
2023-02-23T10:48:05.123Z,13.70
2023-02-23T10:50:33.748Z,12.87
2023-02-23T10:53:16.579Z,18.33
2023-02-23T10:55:45.674Z,13.10
2023-02-23T10:58:18.881Z,18.50
2023-02-23T11:00:56.300Z,14.30
2023-02-23T11:03:32.681Z,16.77
2023-02-23T11:06:00.253Z,14.40
2023-02-23T11:08:38.190Z,15.23
2023-02-23T11:11:17.271Z,12.50
2023-02-23T11:13:49.315Z,15.57
2023-02-23T11:16:37.539Z,17.03
2023-02-23T11:19:07.350Z,19.53
2023-02-23T11:21:38.438Z,13.03
2023-02-23T11:24:13.230Z,13.87
2023-02-23T11:26:43.664Z,28.27
2023-02-23T11:29:27.556Z,13.77
2023-02-23T11:31:58.466Z,13.60
2023-02-23T11:34:32.087Z,13.33
2023-02-23T11:37:01.933Z,13.87
2023-02-23T11:39:28.699Z,14.87
2023-02-23T11:42:19.343Z,15.53
2023-02-23T11:45:02.766Z,13.37
2023-02-23T11:47:30.574Z,12.97
2023-02-23T11:49:58.152Z,13.60
2023-02-23T11:52:27.938Z,14.80
2023-02-23T11:54:58.203Z,17.40
2023-02-23T11:57:36.438Z,15.23
2023-02-23T12:00:11.535Z,13.40
2023-02-23T12:02:52.430Z,12.77
2023-02-23T12:05:30.381Z,14.33
2023-02-23T12:08:10.690Z,13.53
2023-02-23T12:10:42.905Z,15.37
2023-02-23T12:13:24.716Z,11.00
2023-02-23T12:16:03.058Z,19.07
2023-02-23T12:18:44.513Z,10.33
2023-02-23T12:21:38.264Z,9.80
2023-02-23T12:24:28.629Z,11.00
2023-02-23T12:27:01.803Z,11.20
2023-02-23T12:29:37.658Z,12.37
2023-02-23T12:32:20.303Z,10.07
2023-02-23T12:34:53.070Z,5.60
2023-02-23T12:37:29.332Z,6.97
2023-02-23T12:40:14.116Z,6.60
2023-02-23T12:42:51.803Z,7.20
2023-02-23T12:45:55.705Z,8.13
2023-02-23T12:48:25.543Z,7.63
2023-02-23T12:50:55.743Z,10.43
2023-02-23T12:53:35.371Z,6.10
2023-02-23T12:56:23.599Z,9.87
2023-02-23T12:58:56.263Z,8.80
2023-02-23T13:01:36.152Z,11.87
2023-02-23T13:04:51.673Z,9.83
2023-02-23T13:07:39.247Z,6.80
2023-02-23T13:10:18.808Z,6.33
2023-02-23T13:12:57.297Z,9.70
2023-02-23T13:15:55.117Z,6.00
2023-02-23T13:18:35.334Z,6.20
2023-02-23T13:21:29.148Z,8.17
2023-02-23T13:24:07.452Z,6.67
2023-02-23T13:26:50.573Z,6.10
2023-02-23T13:29:41.574Z,5.93
2023-02-23T13:32:32.734Z,5.13
2023-02-23T13:35:01.066Z,5.53
2023-02-23T13:37:34.936Z,6.27
2023-02-23T13:40:19.744Z,5.47
2023-02-23T13:43:01.097Z,5.40
2023-02-23T13:45:59.649Z,4.10
2023-02-23T13:48:56.139Z,6.37
2023-02-23T13:51:41.671Z,6.80
2023-02-23T13:54:16.412Z,3.10
2023-02-23T13:56:59.413Z,3.10
2023-02-23T13:59:29.715Z,6.00
2023-02-23T14:01:57.186Z,3.87
2023-02-23T14:04:34.501Z,3.80
2023-02-23T14:07:11.858Z,5.53
2023-02-23T14:09:47.168Z,4.70
2023-02-23T14:12:25.212Z,3.60
2023-02-23T14:14:52.095Z,3.40
2023-02-23T14:17:19.253Z,4.67
2023-02-23T14:20:13.286Z,5.07
2023-02-23T14:23:21.499Z,3.90
2023-02-23T14:25:52.031Z,7.33
2023-02-23T14:28:31.194Z,4.50
2023-02-23T14:31:05.664Z,5.47
2023-02-23T14:33:48.604Z,4.00
2023-02-23T14:36:24.462Z,6.60
2023-02-23T14:39:01.415Z,5.67
2023-02-23T14:41:36.675Z,6.23
2023-02-23T14:44:12.342Z,7.03
2023-02-23T14:46:54.916Z,3.60
2023-02-23T14:49:23.784Z,5.63
2023-02-23T14:51:55.223Z,8.63
2023-02-23T14:54:25.128Z,8.30
2023-02-23T14:56:58.307Z,7.73
2023-02-23T14:59:28.271Z,4.97
2023-02-23T15:01:59.417Z,6.27
2023-02-23T15:04:30.012Z,4.07
2023-02-23T15:07:00.726Z,6.00
2023-02-23T15:09:42.641Z,8.57
2023-02-23T15:12:16.795Z,7.47
2023-02-23T15:14:44.267Z,9.60
2023-02-23T15:17:16.486Z,5.50
2023-02-23T15:19:44.934Z,5.00
2023-02-23T15:22:41.729Z,7.80
2023-02-23T15:25:21.045Z,10.47
2023-02-23T15:27:48.505Z,7.90
2023-02-23T15:30:22.842Z,7.20
2023-02-23T15:32:59.309Z,5.93
2023-02-23T15:35:26.703Z,9.90
2023-02-23T15:38:05.599Z,9.03
2023-02-23T15:40:41.213Z,4.73
2023-02-23T15:43:11.148Z,5.27
2023-02-23T15:45:46.796Z,8.23
2023-02-23T15:48:18.568Z,6.37
2023-02-23T15:50:50.901Z,9.70
2023-02-23T15:53:29.169Z,6.90
2023-02-23T15:56:03.006Z,6.40
2023-02-23T15:58:47.724Z,6.57
2023-02-23T16:01:30.349Z,8.60
2023-02-23T16:04:09.302Z,7.00
2023-02-23T16:06:41.788Z,7.00
2023-02-23T16:09:13.562Z,6.80
2023-02-23T16:11:40.427Z,6.57
2023-02-23T16:14:16.206Z,8.03
2023-02-23T16:16:46.694Z,8.67
2023-02-23T16:19:15.182Z,6.00
2023-02-23T16:21:42.213Z,6.17
2023-02-23T16:24:22.178Z,6.30
2023-02-23T16:26:57.359Z,7.13
2023-02-23T16:29:31.949Z,6.57
2023-02-23T16:32:04.153Z,5.80
2023-02-23T16:34:36.697Z,8.60
2023-02-23T16:37:15.764Z,9.97
2023-02-23T16:39:42.621Z,7.40
2023-02-23T16:42:23.203Z,12.47
2023-02-23T16:44:50.063Z,6.33
2023-02-23T16:47:22.861Z,12.07
2023-02-23T16:49:50.724Z,9.17
2023-02-23T16:52:22.376Z,9.53
2023-02-23T16:54:54.511Z,12.10
2023-02-23T16:57:26.971Z,7.63
2023-02-23T16:59:55.886Z,9.13
2023-02-23T17:02:22.903Z,7.38
2023-02-23T17:04:51.684Z,9.35
2023-02-23T17:07:21.870Z,11.00
2023-02-23T17:09:50.118Z,11.32
2023-02-23T17:12:21.735Z,15.20
2023-02-23T17:14:49.561Z,12.67
2023-02-23T17:17:18.761Z,8.27
2023-02-23T17:19:46.701Z,11.30
2023-02-23T17:22:13.960Z,14.80
2023-02-23T17:24:42.081Z,13.20
2023-02-23T17:27:09.010Z,14.05
2023-02-23T17:29:35.834Z,17.23
2023-02-23T17:32:02.984Z,11.10
2023-02-23T17:34:30.766Z,11.52
2023-02-23T17:36:57.667Z,12.93
2023-02-23T17:39:28.093Z,11.18
2023-02-23T17:41:55.399Z,13.40
2023-02-23T17:44:22.272Z,10.75
2023-02-23T17:46:49.134Z,13.50
2023-02-23T17:49:15.954Z,11.90
2023-02-23T17:51:42.824Z,11.98
2023-02-23T17:54:09.627Z,11.57
2023-02-23T17:56:36.669Z,18.60
2023-02-23T17:59:03.619Z,15.52
2023-02-23T18:01:30.695Z,14.70
2023-02-23T18:03:58.603Z,14.48
2023-02-23T18:06:26.054Z,19.50
2023-02-23T18:08:52.831Z,18.02
2023-02-23T18:11:19.884Z,12.80
2023-02-23T18:13:48.019Z,16.92
2023-02-23T18:16:16.134Z,21.27
2023-02-23T18:18:45.756Z,18.88
2023-02-23T18:21:20.947Z,10.15
2023-02-23T18:23:48.650Z,17.20
2023-02-23T18:26:21.864Z,13.75
2023-02-23T18:28:51.144Z,16.33
2023-02-23T18:31:21.283Z,19.02
2023-02-23T18:33:56.380Z,20.38
2023-02-23T18:36:32.044Z,17.75
2023-02-23T18:39:00.879Z,17.00
2023-02-23T18:41:30.821Z,16.50
2023-02-23T18:44:02.194Z,13.18
2023-02-23T18:46:29.752Z,21.48
2023-02-23T18:48:56.575Z,12.23
2023-02-23T18:51:23.965Z,16.10
2023-02-23T18:53:52.176Z,16.33
2023-02-23T18:56:23.366Z,17.33
2023-02-23T18:58:51.935Z,15.77
2023-02-23T19:01:22.419Z,19.08
2023-02-23T19:03:52.285Z,16.17
2023-02-23T19:06:21.600Z,32.83
2023-02-23T19:08:54.186Z,18.48
2023-02-23T19:11:32.728Z,17.48
2023-02-23T19:14:03.563Z,15.88
2023-02-23T19:16:32.071Z,18.02
2023-02-23T19:18:59.980Z,17.50
2023-02-23T19:21:26.772Z,15.85
2023-02-23T19:23:57.618Z,16.98
2023-02-23T19:26:25.792Z,14.75
2023-02-23T19:28:52.600Z,14.55
2023-02-23T19:31:21.347Z,20.52
2023-02-23T19:33:49.785Z,16.67
2023-02-23T19:36:19.651Z,17.67
2023-02-23T19:38:46.470Z,17.80
2023-02-23T19:41:16.153Z,25.63
2023-02-23T19:43:43.150Z,17.60
2023-02-23T19:46:12.739Z,18.75
2023-02-23T19:48:39.779Z,18.50
2023-02-23T19:51:11.127Z,26.17
2023-02-23T19:53:38.438Z,22.67
2023-02-23T19:56:08.549Z,25.05
2023-02-23T19:58:35.648Z,21.33
2023-02-23T20:01:07.962Z,20.55
2023-02-23T20:03:35.729Z,26.10
2023-02-23T20:06:05.784Z,22.42
2023-02-23T20:08:33.558Z,21.35
2023-02-23T20:11:00.445Z,19.80
2023-02-23T20:13:27.473Z,26.75
2023-02-23T20:16:20.862Z,24.95
2023-02-23T20:18:48.095Z,25.75
2023-02-23T20:21:21.198Z,23.90
2023-02-23T20:23:48.317Z,20.20
2023-02-23T20:26:18.999Z,29.48
2023-02-23T20:28:46.313Z,22.38
2023-02-23T20:31:25.608Z,20.52
2023-02-23T20:33:54.389Z,20.67
2023-02-23T20:36:22.609Z,24.75
2023-02-23T20:38:49.910Z,23.48
2023-02-23T20:41:17.609Z,26.70
2023-02-23T20:43:44.946Z,24.35
2023-02-23T20:46:14.366Z,26.67
2023-02-23T20:48:42.274Z,18.85
2023-02-23T20:51:12.899Z,20.58
2023-02-23T20:53:41.042Z,32.13
2023-02-23T20:56:09.998Z,20.83
2023-02-23T20:58:36.928Z,22.45
2023-02-23T21:01:06.994Z,31.45
2023-02-23T21:03:35.501Z,22.60
2023-02-23T21:06:02.315Z,28.13
2023-02-23T21:08:30.514Z,20.45
2023-02-23T21:10:57.327Z,24.02
2023-02-23T21:13:26.508Z,28.20
2023-02-23T21:16:01.062Z,26.60
2023-02-23T21:18:28.893Z,23.08
2023-02-23T21:20:56.908Z,20.73
2023-02-23T21:23:25.440Z,23.52
2023-02-23T21:25:54.062Z,20.83
2023-02-23T21:28:21.157Z,25.30
2023-02-23T21:30:48.079Z,23.25
2023-02-23T21:33:15.063Z,26.38
2023-02-23T21:35:41.952Z,24.65
2023-02-23T21:38:10.462Z,25.40
2023-02-23T21:40:42.280Z,21.20
2023-02-23T21:43:09.328Z,21.85
2023-02-23T21:45:39.135Z,21.70
2023-02-23T21:48:05.897Z,22.55
2023-02-23T21:50:32.681Z,23.98
2023-02-23T21:52:59.441Z,20.63
2023-02-23T21:55:26.262Z,18.70
2023-02-23T21:57:53.140Z,21.13
2023-02-23T22:00:21.619Z,25.77
2023-02-23T22:02:49.435Z,24.63
2023-02-23T22:05:18.493Z,19.58
2023-02-23T22:07:54.021Z,19.05
2023-02-23T22:10:23.266Z,20.35
2023-02-23T22:12:55.913Z,22.05
2023-02-23T22:15:27.722Z,21.20
2023-02-23T22:17:55.613Z,23.60
2023-02-23T22:20:22.545Z,20.70
2023-02-23T22:22:52.438Z,32.28
2023-02-23T22:25:20.408Z,19.80
2023-02-23T22:27:47.792Z,18.98
2023-02-23T22:30:15.720Z,21.23
2023-02-23T22:32:43.230Z,23.48
2023-02-23T22:35:10.655Z,21.75
2023-02-23T22:37:38.751Z,21.67
2023-02-23T22:40:16.692Z,15.93
2023-02-23T22:42:49.700Z,16.58
2023-02-23T22:45:18.843Z,18.08
2023-02-23T22:47:45.909Z,19.58
2023-02-23T22:50:17.963Z,21.60
2023-02-23T22:52:46.348Z,19.88
2023-02-23T22:55:13.198Z,18.20
2023-02-23T22:57:40.310Z,24.23
2023-02-23T23:00:10.539Z,16.20
2023-02-23T23:02:37.535Z,18.95
2023-02-23T23:05:06.240Z,25.50
2023-02-23T23:07:33.090Z,14.75
2023-02-23T23:10:05.426Z,16.52
2023-02-23T23:12:34.505Z,19.45
2023-02-23T23:15:04.667Z,19.33
2023-02-23T23:17:32.292Z,18.17
2023-02-23T23:20:00.367Z,20.58
2023-02-23T23:22:28.082Z,16.80
2023-02-23T23:24:57.064Z,17.48
2023-02-23T23:27:24.703Z,20.75
2023-02-23T23:29:51.601Z,13.07
2023-02-23T23:32:19.333Z,16.40
2023-02-23T23:34:49.683Z,15.75
2023-02-23T23:37:19.227Z,15.82
2023-02-23T23:39:46.336Z,19.95
2023-02-23T23:42:13.314Z,18.85
2023-02-23T23:44:40.069Z,19.70
2023-02-23T23:47:07.068Z,14.15
2023-02-23T23:49:39.845Z,14.15
2023-02-23T23:52:07.232Z,13.73
2023-02-23T23:54:39.075Z,17.20
2023-02-23T23:57:06.377Z,15.02
2023-02-23T23:59:34.833Z,19.48
